Time;durP1;ratioP1;P1;durP2;ratioP2;P2;SDS_P1;SDS_P2;PMS_P1;PMS_P2;Temp;Humidity;BMP_temperature;BMP_pressure;BME280_temperature;BME280_humidity;BME280_pressure;Samples;Min_cycle;Max_cycle;Signal;HPM_P1;HPM_P2
2022/03/23 00:01:48;;;;;;;17.53;12.73;;;5.10;63.70;;;;;;5048930;28;20645;-83
2022/03/23 00:04:15;;;;;;;19.67;14.57;;;5.00;63.60;;;;;;5052721;28;20244;-83
2022/03/23 00:06:44;;;;;;;19.83;13.90;;;4.90;63.70;;;;;;5051648;28;20228;-83
2022/03/23 00:09:12;;;;;;;17.93;13.23;;;4.90;64.20;;;;;;5052934;28;20231;-85
2022/03/23 00:11:39;;;;;;;18.13;13.37;;;4.90;63.90;;;;;;5050172;28;20291;-84
2022/03/23 00:14:06;;;;;;;22.97;14.33;;;4.90;64.00;;;;;;5051921;28;20319;-84
2022/03/23 00:16:35;;;;;;;19.30;13.70;;;4.80;64.60;;;;;;5051087;28;20227;-84
2022/03/23 00:19:02;;;;;;;22.53;15.33;;;4.80;64.70;;;;;;5049565;28;20223;-83
2022/03/23 00:21:29;;;;;;;19.80;14.87;;;4.80;64.60;;;;;;5046760;28;20291;-85
2022/03/23 00:23:57;;;;;;;21.20;14.43;;;4.70;64.90;;;;;;5051227;28;20680;-83
2022/03/23 00:26:24;;;;;;;22.73;15.20;;;4.70;65.60;;;;;;5052242;28;21081;-83
2022/03/23 00:28:51;;;;;;;19.73;13.80;;;4.70;65.70;;;;;;5053079;28;20311;-83
2022/03/23 00:31:20;;;;;;;18.80;14.30;;;4.60;65.40;;;;;;5047721;28;20236;-82
2022/03/23 00:33:47;;;;;;;19.60;14.03;;;4.60;65.70;;;;;;5048673;28;20665;-83
2022/03/23 00:36:15;;;;;;;20.10;14.87;;;4.50;65.90;;;;;;5050838;28;20247;-83
2022/03/23 00:38:42;;;;;;;21.47;13.60;;;4.50;65.90;;;;;;5053422;28;20242;-84
2022/03/23 00:41:13;;;;;;;20.10;15.00;;;4.50;66.00;;;;;;5053585;28;20230;-84
2022/03/23 00:43:40;;;;;;;20.63;13.90;;;4.40;66.50;;;;;;5053264;28;20313;-84
2022/03/23 00:46:07;;;;;;;21.40;15.17;;;4.40;66.60;;;;;;5051463;28;20233;-84
2022/03/23 00:48:33;;;;;;;20.40;15.90;;;4.30;66.70;;;;;;5053756;28;20287;-84
2022/03/23 00:51:00;;;;;;;22.33;15.63;;;4.30;66.70;;;;;;5050742;28;20680;-84
2022/03/23 00:53:27;;;;;;;22.30;16.83;;;4.30;66.40;;;;;;5049502;28;20718;-83
2022/03/23 00:55:54;;;;;;;28.53;17.07;;;4.30;66.50;;;;;;5048556;28;20227;-84
2022/03/23 00:58:24;;;;;;;21.43;16.67;;;4.20;66.70;;;;;;5050547;28;20238;-84
2022/03/23 01:00:51;;;;;;;25.90;16.50;;;4.20;67.10;;;;;;5047875;28;20349;-84
2022/03/23 01:03:18;;;;;;;24.20;17.20;;;4.20;67.30;;;;;;5053230;28;20227;-84
2022/03/23 01:05:45;;;;;;;24.77;18.10;;;4.20;67.30;;;;;;5043179;28;20493;-84
2022/03/23 01:08:11;;;;;;;24.57;17.27;;;4.30;67.90;;;;;;5046510;28;20709;-85
2022/03/23 01:10:39;;;;;;;24.20;17.03;;;4.20;67.90;;;;;;5053733;28;20265;-83
2022/03/23 01:13:06;;;;;;;30.10;17.97;;;4.20;68.00;;;;;;5048898;28;21019;-85
2022/03/23 01:15:34;;;;;;;23.70;16.93;;;4.20;68.20;;;;;;5053898;28;20660;-84
2022/03/23 01:18:01;;;;;;;25.17;17.10;;;4.20;68.40;;;;;;5049993;28;20288;-83
2022/03/23 01:20:30;;;;;;;23.33;17.37;;;4.20;68.30;;;;;;5048954;28;20310;-83
2022/03/23 01:22:57;;;;;;;27.27;18.23;;;4.20;68.40;;;;;;5066074;28;20253;-83
2022/03/23 01:25:23;;;;;;;25.80;18.37;;;4.10;68.40;;;;;;5050757;28;20626;-83
2022/03/23 01:27:50;;;;;;;25.47;17.67;;;4.10;68.60;;;;;;5052878;28;20731;-84
2022/03/23 01:30:18;;;;;;;26.10;17.40;;;4.10;68.70;;;;;;5048702;28;20643;-84
2022/03/23 01:32:46;;;;;;;26.27;18.60;;;4.10;68.80;;;;;;5048783;28;20227;-84
2022/03/23 01:35:14;;;;;;;25.83;18.37;;;4.10;69.70;;;;;;5051924;28;20254;-84
2022/03/23 01:37:41;;;;;;;26.43;18.60;;;4.00;69.80;;;;;;5053351;28;20313;-84
2022/03/23 01:40:10;;;;;;;27.40;18.53;;;4.00;69.20;;;;;;5051277;28;20637;-84
2022/03/23 01:42:37;;;;;;;25.90;17.63;;;4.00;69.50;;;;;;5053280;28;20230;-84
2022/03/23 01:45:05;;;;;;;28.03;19.13;;;3.90;69.40;;;;;;5051266;28;20247;-83
2022/03/23 01:47:32;;;;;;;28.33;20.10;;;3.90;69.80;;;;;;5048500;28;20245;-84
2022/03/23 01:50:03;;;;;;;27.70;19.73;;;4.00;70.00;;;;;;5051801;28;20306;-83
2022/03/23 01:52:32;;;;;;;26.33;19.00;;;3.90;70.10;;;;;;5047750;28;20230;-86
2022/03/23 01:55:01;;;;;;;28.33;19.00;;;3.80;70.20;;;;;;5051703;28;20219;-86
2022/03/23 01:57:30;;;;;;;27.27;19.27;;;3.80;70.30;;;;;;5052744;28;20252;-85
2022/03/23 01:59:57;;;;;;;27.43;18.63;;;3.80;70.40;;;;;;5054163;28;20238;-84
2022/03/23 02:02:25;;;;;;;27.10;19.30;;;3.80;70.50;;;;;;5052369;28;20408;-85
2022/03/23 02:04:56;;;;;;;30.03;19.20;;;3.80;70.70;;;;;;5052212;28;20225;-85
2022/03/23 02:07:25;;;;;;;26.73;19.17;;;3.70;70.80;;;;;;5052033;28;20233;-82
2022/03/23 02:09:53;;;;;;;32.20;20.33;;;3.70;71.10;;;;;;5051909;28;20850;-83
2022/03/23 02:12:30;;;;;;;31.73;19.93;;;3.70;71.10;;;;;;5050784;28;20241;-83
2022/03/23 02:14:57;;;;;;;29.80;19.33;;;3.70;71.20;;;;;;5053800;28;20227;-83
2022/03/23 02:17:23;;;;;;;30.37;19.83;;;3.70;71.20;;;;;;5054142;28;20726;-83
2022/03/23 02:19:51;;;;;;;31.47;21.40;;;3.70;71.10;;;;;;5054964;28;20231;-83
2022/03/23 02:22:21;;;;;;;26.87;19.60;;;3.60;71.40;;;;;;5050902;28;20229;-85
2022/03/23 02:24:48;;;;;;;28.60;20.27;;;3.70;72.00;;;;;;5053296;28;20317;-83
2022/03/23 02:27:15;;;;;;;28.23;19.23;;;3.60;71.80;;;;;;5051634;28;20614;-85
2022/03/23 02:29:42;;;;;;;29.47;19.80;;;3.60;71.90;;;;;;5050176;28;20695;-83
2022/03/23 02:32:09;;;;;;;26.93;19.63;;;3.60;72.00;;;;;;5050327;28;20884;-83
2022/03/23 02:34:36;;;;;;;26.80;19.07;;;3.60;72.10;;;;;;5051256;28;20235;-83
2022/03/23 02:37:03;;;;;;;29.30;20.20;;;3.50;72.30;;;;;;5045510;28;20246;-82
2022/03/23 02:39:31;;;;;;;25.43;19.50;;;3.50;72.70;;;;;;5050104;28;20234;-82
2022/03/23 02:41:58;;;;;;;30.37;20.67;;;3.50;73.00;;;;;;5045983;28;20312;-86
2022/03/23 02:44:26;;;;;;;27.13;20.07;;;3.40;72.80;;;;;;5047221;28;20600;-85
2022/03/23 02:46:53;;;;;;;30.37;19.77;;;3.40;73.20;;;;;;5046531;28;20686;-84
2022/03/23 02:49:20;;;;;;;27.70;19.60;;;3.40;73.20;;;;;;5047616;28;20235;-85
2022/03/23 02:51:47;;;;;;;27.80;20.00;;;3.30;73.30;;;;;;5051464;28;20236;-85
2022/03/23 03:02:41;;;;;;;27.77;19.50;;;3.20;74.20;;;;;;5051678;28;20717;-85
2022/03/23 03:05:10;;;;;;;29.93;20.67;;;3.20;73.90;;;;;;5047316;28;20230;-83
2022/03/23 03:10:19;;;;;;;26.57;19.57;;;3.10;74.60;;;;;;5050181;28;20289;-85
2022/03/23 03:12:47;;;;;;;25.67;18.67;;;3.10;74.40;;;;;;5050630;28;20224;-84
2022/03/23 03:15:14;;;;;;;30.53;19.47;;;3.00;74.80;;;;;;5050362;28;20611;-85
2022/03/23 03:17:41;;;;;;;28.17;20.87;;;2.90;75.50;;;;;;5055210;28;20242;-85
2022/03/23 03:20:09;;;;;;;27.43;20.53;;;2.90;75.80;;;;;;5050989;28;20228;-83
2022/03/23 03:22:38;;;;;;;29.70;19.63;;;2.90;76.00;;;;;;5050564;28;20228;-82
2022/03/23 03:25:05;;;;;;;29.00;20.13;;;2.80;76.10;;;;;;5045082;28;20780;-83
2022/03/23 03:27:35;;;;;;;26.43;18.40;;;2.80;76.10;;;;;;5051357;28;20233;-83
2022/03/23 03:30:04;;;;;;;27.93;20.37;;;2.70;76.10;;;;;;5051068;28;20302;-84
2022/03/23 03:32:30;;;;;;;32.80;21.40;;;2.70;76.50;;;;;;5049893;28;20230;-83
2022/03/23 03:34:57;;;;;;;27.83;20.10;;;2.70;76.80;;;;;;5045957;28;20226;-82
2022/03/23 03:37:24;;;;;;;28.97;20.77;;;2.70;77.10;;;;;;5051875;28;20240;-79
2022/03/23 03:39:51;;;;;;;31.30;20.60;;;2.70;77.40;;;;;;5048427;28;20254;-81
2022/03/23 03:42:18;;;;;;;28.37;20.10;;;2.60;77.20;;;;;;5048667;28;20655;-81
2022/03/23 03:44:45;;;;;;;29.23;20.87;;;2.60;77.40;;;;;;5053963;28;20224;-81
2022/03/23 03:47:13;;;;;;;30.87;21.30;;;2.60;77.40;;;;;;5052666;28;20321;-81
2022/03/23 03:49:40;;;;;;;29.23;20.47;;;2.50;77.50;;;;;;5052222;28;20346;-80
2022/03/23 03:52:07;;;;;;;29.00;20.63;;;2.50;77.50;;;;;;5050201;28;20691;-80
2022/03/23 03:54:34;;;;;;;31.20;20.97;;;2.50;77.80;;;;;;5050463;28;20230;-81
2022/03/23 03:57:00;;;;;;;29.53;20.57;;;2.50;77.90;;;;;;5052014;28;20228;-84
2022/03/23 03:59:28;;;;;;;29.23;21.27;;;2.40;77.90;;;;;;5050764;28;20303;-83
2022/03/23 04:01:55;;;;;;;31.07;21.00;;;2.40;78.10;;;;;;5050039;28;20346;-83
2022/03/23 04:04:23;;;;;;;29.63;21.37;;;2.40;78.10;;;;;;5050112;28;20725;-84
2022/03/23 04:06:49;;;;;;;30.67;21.93;;;2.30;78.70;;;;;;5055021;28;20525;-84
2022/03/23 04:09:16;;;;;;;30.13;21.50;;;2.30;78.70;;;;;;5046950;28;20329;-86
2022/03/23 04:11:43;;;;;;;30.83;20.63;;;2.30;78.90;;;;;;5053123;28;20303;-85
2022/03/23 04:14:10;;;;;;;28.80;20.17;;;2.30;79.10;;;;;;5053260;28;20319;-84
2022/03/23 04:16:36;;;;;;;28.47;20.60;;;2.30;79.00;;;;;;5045711;28;20239;-82
2022/03/23 04:19:05;;;;;;;29.93;20.97;;;2.20;78.80;;;;;;5056364;28;20243;-85
2022/03/23 04:21:33;;;;;;;29.50;20.80;;;2.20;79.00;;;;;;5051866;28;20265;-84
2022/03/23 04:23:59;;;;;;;30.60;21.87;;;2.20;79.40;;;;;;5044790;28;20337;-84
2022/03/23 04:26:26;;;;;;;30.77;22.20;;;2.10;79.20;;;;;;5046303;28;20235;-84
2022/03/23 04:28:53;;;;;;;30.23;20.47;;;2.10;79.70;;;;;;5049822;28;20232;-85
2022/03/23 04:31:20;;;;;;;27.70;20.10;;;2.10;80.00;;;;;;5050703;28;20242;-84
2022/03/23 04:33:47;;;;;;;28.80;20.57;;;2.00;80.00;;;;;;5046462;28;20361;-84
2022/03/23 04:36:14;;;;;;;33.17;21.97;;;2.00;79.60;;;;;;5049072;28;20225;-85
2022/03/23 04:38:42;;;;;;;30.83;21.80;;;2.00;79.50;;;;;;5047236;28;20227;-83
2022/03/23 04:41:09;;;;;;;32.03;22.13;;;2.00;79.80;;;;;;5052581;28;20222;-83
2022/03/23 04:43:38;;;;;;;33.23;21.20;;;2.00;79.90;;;;;;5048391;28;20230;-83
2022/03/23 04:46:05;;;;;;;27.37;19.20;;;1.90;80.30;;;;;;5053392;28;20227;-83
2022/03/23 04:48:31;;;;;;;29.30;20.37;;;1.90;80.90;;;;;;5051959;28;20238;-82
2022/03/23 04:50:58;;;;;;;30.07;19.83;;;1.90;80.80;;;;;;5039957;28;20219;-83
2022/03/23 04:53:25;;;;;;;28.07;18.70;;;1.80;80.70;;;;;;5047890;28;20932;-83
2022/03/23 04:55:53;;;;;;;30.23;20.53;;;1.80;81.00;;;;;;5049055;28;20264;-83
2022/03/23 04:58:20;;;;;;;29.47;21.23;;;1.80;81.50;;;;;;5053047;28;20231;-81
2022/03/23 05:00:46;;;;;;;29.77;21.00;;;1.70;81.30;;;;;;5051378;28;20231;-84
2022/03/23 05:03:14;;;;;;;31.23;21.60;;;1.70;81.20;;;;;;5049108;28;20225;-83
2022/03/23 05:05:40;;;;;;;33.20;21.70;;;1.70;81.70;;;;;;5048891;28;20226;-84
2022/03/23 05:08:07;;;;;;;32.13;22.60;;;1.70;82.20;;;;;;5052119;28;20230;-79
2022/03/23 05:10:34;;;;;;;32.83;22.57;;;1.70;82.60;;;;;;5050853;28;20254;-79
2022/03/23 05:13:02;;;;;;;33.83;21.47;;;1.70;82.90;;;;;;5046672;28;20227;-79
2022/03/23 05:15:28;;;;;;;31.50;21.73;;;1.70;83.30;;;;;;5048065;28;20229;-79
2022/03/23 05:17:56;;;;;;;33.43;22.73;;;1.60;83.20;;;;;;5051482;28;20308;-79
2022/03/23 05:20:23;;;;;;;36.53;23.30;;;1.70;83.50;;;;;;5051173;28;20796;-81
2022/03/23 05:22:50;;;;;;;34.67;22.13;;;1.70;83.50;;;;;;5050843;28;20234;-78
2022/03/23 05:25:17;;;;;;;30.00;22.43;;;1.70;83.60;;;;;;5048740;28;20255;-77
2022/03/23 05:27:44;;;;;;;35.83;24.07;;;1.70;83.80;;;;;;5050497;28;20556;-77
2022/03/23 05:30:13;;;;;;;31.47;21.07;;;1.80;83.90;;;;;;5047999;28;20224;-76
2022/03/23 05:32:40;;;;;;;32.13;22.73;;;1.80;83.90;;;;;;5046387;28;20231;-78
2022/03/23 05:35:09;;;;;;;33.80;22.73;;;1.80;83.60;;;;;;5043285;28;20229;-77
2022/03/23 05:37:35;;;;;;;36.33;24.60;;;1.80;83.90;;;;;;5041856;28;20639;-77
2022/03/23 05:40:03;;;;;;;33.67;22.23;;;1.80;83.90;;;;;;5052343;28;20219;-77
2022/03/23 05:42:30;;;;;;;34.07;22.57;;;1.80;84.00;;;;;;5043392;28;20289;-78
2022/03/23 05:44:56;;;;;;;33.87;23.53;;;1.80;83.80;;;;;;5047820;28;20697;-78
2022/03/23 05:47:24;;;;;;;34.93;22.37;;;1.90;83.90;;;;;;5047562;28;20847;-78
2022/03/23 05:49:52;;;;;;;31.90;22.83;;;1.90;84.10;;;;;;5051558;28;20227;-78
2022/03/23 05:52:19;;;;;;;34.67;23.43;;;1.90;84.10;;;;;;5049767;28;20320;-78
2022/03/23 05:54:45;;;;;;;34.77;22.90;;;2.00;84.30;;;;;;5047779;28;20796;-78
2022/03/23 05:57:12;;;;;;;31.97;22.33;;;2.10;84.60;;;;;;5050368;28;20316;-80
2022/03/23 05:59:39;;;;;;;35.60;23.77;;;2.20;84.50;;;;;;5049226;28;20313;-81
2022/03/23 06:02:05;;;;;;;38.37;23.07;;;2.40;84.70;;;;;;5048417;28;20232;-77
2022/03/23 06:04:34;;;;;;;28.90;21.27;;;2.60;84.80;;;;;;5050552;28;20709;-77
2022/03/23 06:07:00;;;;;;;29.33;21.53;;;2.70;84.80;;;;;;5053979;28;20227;-79
2022/03/23 06:09:27;;;;;;;26.07;20.50;;;3.00;84.70;;;;;;5050216;28;20801;-78
2022/03/23 06:11:54;;;;;;;26.23;19.27;;;3.20;84.40;;;;;;5048236;28;20226;-77
2022/03/23 06:14:20;;;;;;;28.67;20.70;;;3.40;83.90;;;;;;5048160;28;20230;-77
2022/03/23 06:16:47;;;;;;;31.03;21.07;;;3.50;83.30;;;;;;5048325;28;20238;-78
2022/03/23 06:19:14;;;;;;;28.17;20.57;;;3.70;82.90;;;;;;5048145;28;20245;-80
2022/03/23 06:21:43;;;;;;;27.87;20.57;;;3.80;82.80;;;;;;5051244;28;20233;-80
2022/03/23 06:24:09;;;;;;;29.53;21.23;;;4.00;83.80;;;;;;5046994;28;20280;-81
2022/03/23 06:26:36;;;;;;;29.27;20.57;;;4.10;83.00;;;;;;5051688;28;20225;-80
2022/03/23 06:29:03;;;;;;;31.03;21.77;;;4.30;83.20;;;;;;5057859;28;20711;-80
2022/03/23 06:31:30;;;;;;;31.77;23.00;;;4.50;82.70;;;;;;5051785;28;20238;-81
2022/03/23 06:33:56;;;;;;;33.20;23.13;;;4.70;82.30;;;;;;5048625;28;20244;-80
2022/03/23 06:36:23;;;;;;;36.03;23.40;;;4.90;82.00;;;;;;5050252;28;20231;-80
2022/03/23 06:38:52;;;;;;;32.03;22.47;;;5.10;81.70;;;;;;5049597;28;20227;-80
2022/03/23 06:41:19;;;;;;;30.70;22.20;;;5.30;81.50;;;;;;5051147;28;20223;-80
2022/03/23 06:43:45;;;;;;;28.97;21.40;;;5.50;81.00;;;;;;5054411;28;20232;-80
2022/03/23 06:46:12;;;;;;;30.97;23.00;;;5.70;80.80;;;;;;5052395;28;20227;-81
2022/03/23 06:48:39;;;;;;;29.73;21.77;;;5.90;80.90;;;;;;5049484;28;20258;-80
2022/03/23 06:51:06;;;;;;;31.47;22.37;;;6.10;80.90;;;;;;5051178;28;21094;-80
2022/03/23 06:53:33;;;;;;;30.40;21.57;;;6.30;80.50;;;;;;5053890;28;20238;-80
2022/03/23 06:56:01;;;;;;;29.33;21.40;;;6.50;79.70;;;;;;5051404;28;20239;-81
2022/03/23 06:58:27;;;;;;;30.53;22.93;;;6.70;79.20;;;;;;5048349;28;20605;-81
2022/03/23 07:00:57;;;;;;;29.07;21.47;;;6.90;78.60;;;;;;5050132;28;20426;-80
2022/03/23 07:03:24;;;;;;;30.17;21.97;;;7.00;78.30;;;;;;5055786;28;20254;-80
2022/03/23 07:05:50;;;;;;;28.57;21.33;;;7.20;78.30;;;;;;5051445;28;20228;-80
2022/03/23 07:11:03;;;;;;;29.33;21.80;;;7.40;77.70;;;;;;5049720;28;20743;-80
2022/03/23 07:13:30;;;;;;;30.83;20.90;;;7.50;77.40;;;;;;5053613;28;20237;-80
2022/03/23 07:15:56;;;;;;;26.77;20.40;;;7.70;76.70;;;;;;5053230;28;20251;-80
2022/03/23 07:18:23;;;;;;;25.80;19.17;;;7.80;75.50;;;;;;5050316;28;20235;-81
2022/03/23 07:20:50;;;;;;;26.20;19.10;;;7.90;74.30;;;;;;5052204;28;20560;-80
2022/03/23 07:23:17;;;;;;;28.00;19.77;;;8.10;73.40;;;;;;5048988;28;20228;-80
2022/03/23 07:25:43;;;;;;;28.17;20.20;;;8.20;72.40;;;;;;5047757;28;20232;-81
2022/03/23 07:28:11;;;;;;;26.00;19.33;;;8.40;71.70;;;;;;5049091;28;20219;-80
2022/03/23 07:30:40;;;;;;;27.70;19.77;;;8.50;70.80;;;;;;5047070;28;20242;-80
2022/03/23 07:33:08;;;;;;;25.30;17.90;;;8.70;70.90;;;;;;5046088;28;20318;-81
2022/03/23 07:35:34;;;;;;;25.97;18.70;;;8.90;70.50;;;;;;5056879;28;20224;-80
2022/03/23 07:38:01;;;;;;;26.53;19.13;;;9.10;70.10;;;;;;5055277;28;20744;-80
2022/03/23 07:40:28;;;;;;;22.13;18.10;;;9.40;68.90;;;;;;5048732;28;20248;-81
2022/03/23 07:42:55;;;;;;;26.53;18.17;;;9.60;67.90;;;;;;5044047;28;20808;-80
2022/03/23 07:45:23;;;;;;;23.13;17.83;;;9.90;67.90;;;;;;5047291;28;20231;-81
2022/03/23 07:47:49;;;;;;;26.80;17.97;;;10.10;68.10;;;;;;5047401;28;20232;-81
2022/03/23 07:50:16;;;;;;;23.83;17.97;;;10.40;68.40;;;;;;5049315;28;20648;-80
2022/03/23 07:52:43;;;;;;;27.43;18.00;;;10.70;68.50;;;;;;5049410;28;20258;-81
2022/03/23 07:55:10;;;;;;;21.73;16.93;;;11.10;68.20;;;;;;5054602;28;20591;-81
2022/03/23 07:57:37;;;;;;;22.70;18.43;;;11.60;68.00;;;;;;5048598;28;20244;-81
2022/03/23 08:00:04;;;;;;;25.07;18.10;;;12.20;66.80;;;;;;5049306;28;20221;-81
2022/03/23 08:02:40;;;;;;;20.67;17.50;;;12.70;64.20;;;;;;5054761;28;20232;-81
2022/03/23 08:05:09;;;;;;;20.07;15.70;;;13.20;63.20;;;;;;5049683;28;20274;-80
2022/03/23 08:07:36;;;;;;;21.17;16.37;;;13.50;62.10;;;;;;5050047;28;20235;-81
2022/03/23 08:10:03;;;;;;;20.40;16.27;;;13.70;61.40;;;;;;5048521;28;20241;-81
2022/03/23 08:12:30;;;;;;;18.50;14.93;;;14.00;60.70;;;;;;5049061;28;20239;-81
2022/03/23 08:14:57;;;;;;;17.83;14.47;;;14.20;59.20;;;;;;5045056;28;20236;-81
2022/03/23 08:17:23;;;;;;;16.83;14.13;;;14.50;58.50;;;;;;5050005;28;20235;-81
2022/03/23 08:22:32;;;;;;;16.87;13.67;;;15.10;56.90;;;;;;5050575;28;20307;-81
2022/03/23 08:24:58;;;;;;;17.87;14.70;;;15.40;56.20;;;;;;5049699;28;20766;-82
2022/03/23 08:27:25;;;;;;;20.30;14.77;;;15.70;55.00;;;;;;5048969;28;20237;-81
2022/03/23 08:29:52;;;;;;;18.23;14.07;;;16.00;55.50;;;;;;5052429;28;20223;-81
2022/03/23 08:32:18;;;;;;;18.10;14.73;;;16.30;55.30;;;;;;5049630;28;20232;-81
2022/03/23 08:34:45;;;;;;;18.92;14.52;;;16.70;54.60;;;;;;5050101;28;20246;-81
2022/03/23 08:37:13;;;;;;;17.02;14.30;;;17.20;54.50;;;;;;5043684;28;20600;-81
2022/03/23 08:39:40;;;;;;;15.52;13.88;;;17.70;53.90;;;;;;5047017;28;20247;-81
2022/03/23 08:42:07;;;;;;;18.08;14.93;;;18.20;52.10;;;;;;5050266;28;20236;-82
2022/03/23 08:44:34;;;;;;;15.55;13.65;;;18.80;52.20;;;;;;5052354;28;20837;-81
2022/03/23 08:47:02;;;;;;;15.45;13.10;;;19.20;51.60;;;;;;5049143;28;20224;-81
2022/03/23 08:49:28;;;;;;;19.00;13.57;;;19.60;49.80;;;;;;5053750;28;20750;-82
2022/03/23 08:51:55;;;;;;;14.38;12.73;;;20.00;48.50;;;;;;5047902;28;20620;-81
2022/03/23 08:54:24;;;;;;;15.27;13.75;;;20.30;47.50;;;;;;5048873;28;20716;-81
2022/03/23 08:56:51;;;;;;;14.55;13.07;;;20.50;46.90;;;;;;5043398;28;20717;-82
2022/03/23 08:59:17;;;;;;;15.20;13.52;;;20.90;46.90;;;;;;5049044;28;20292;-81
2022/03/23 09:01:44;;;;;;;15.32;13.40;;;21.20;45.60;;;;;;5050991;28;21102;-82
2022/03/23 09:04:11;;;;;;;15.48;13.80;;;21.40;45.00;;;;;;5047800;28;20223;-82
2022/03/23 09:06:37;;;;;;;15.18;13.07;;;21.80;45.70;;;;;;5048799;28;20242;-81
2022/03/23 09:09:04;;;;;;;14.35;12.93;;;22.10;45.30;;;;;;5049889;28;20226;-82
2022/03/23 09:11:32;;;;;;;16.00;14.30;;;22.40;44.20;;;;;;5046305;28;20224;-82
2022/03/23 09:13:59;;;;;;;15.85;14.13;;;22.70;43.30;;;;;;5047051;28;20941;-82
2022/03/23 09:16:26;;;;;;;16.85;14.20;;;23.00;43.30;;;;;;5052786;28;20956;-82
2022/03/23 09:18:53;;;;;;;15.98;14.32;;;23.30;42.60;;;;;;5044287;28;20218;-82
2022/03/23 09:21:20;;;;;;;16.25;14.55;;;23.50;42.10;;;;;;5049300;28;20308;-82
2022/03/23 09:23:48;;;;;;;16.05;14.27;;;23.70;41.00;;;;;;5052646;28;20294;-82
2022/03/23 09:26:15;;;;;;;17.15;14.40;;;23.90;40.70;;;;;;5050256;28;20228;-82
2022/03/23 09:28:43;;;;;;;16.85;14.18;;;24.00;40.20;;;;;;5054920;28;20595;-82
2022/03/23 09:31:10;;;;;;;17.33;15.05;;;24.10;39.80;;;;;;5050474;28;20250;-82
2022/03/23 09:33:37;;;;;;;17.73;15.82;;;24.10;38.80;;;;;;5049956;28;20247;-82
2022/03/23 09:36:04;;;;;;;15.57;13.88;;;24.10;38.80;;;;;;5048918;28;20322;-82
2022/03/23 09:38:31;;;;;;;14.88;13.38;;;24.00;38.60;;;;;;5050936;28;20232;-82
2022/03/23 09:40:58;;;;;;;17.13;15.13;;;24.00;39.40;;;;;;5051278;28;20224;-82
2022/03/23 09:43:25;;;;;;;15.77;14.07;;;23.90;39.00;;;;;;5053092;28;20246;-82
2022/03/23 09:45:56;;;;;;;15.88;14.13;;;23.90;38.80;;;;;;5045646;28;20315;-82
2022/03/23 09:48:26;;;;;;;16.48;13.45;;;24.00;38.30;;;;;;5051775;28;20240;-82
2022/03/23 09:50:55;;;;;;;17.05;14.60;;;24.20;39.00;;;;;;5049764;28;20250;-82
2022/03/23 09:53:23;;;;;;;16.33;14.10;;;24.30;38.40;;;;;;5051472;28;20232;-82
2022/03/23 09:55:50;;;;;;;15.65;13.70;;;24.50;38.30;;;;;;5060399;28;20228;-82
2022/03/23 09:58:18;;;;;;;16.15;13.55;;;24.60;37.30;;;;;;5050338;28;20291;-82
2022/03/23 10:00:45;;;;;;;15.68;14.07;;;24.70;37.60;;;;;;5055240;28;20224;-82
2022/03/23 10:04:04;;;;;;;19.23;16.38;;;24.80;37.50;;;;;;5059013;28;20269;-82
2022/03/23 10:06:57;;;;;;;17.15;15.35;;;24.80;37.00;;;;;;5054408;28;20240;-82
2022/03/23 10:10:16;;;;;;;16.00;14.00;;;24.90;37.00;;;;;;5052594;28;20438;-82
2022/03/23 10:13:20;;;;;;;15.95;14.23;;;24.90;37.10;;;;;;5052257;28;20231;-82
2022/03/23 10:16:43;;;;;;;15.07;13.45;;;25.00;36.40;;;;;;5051056;28;20320;-82
2022/03/23 10:19:11;;;;;;;16.85;13.98;;;25.00;37.10;;;;;;5050857;28;20795;-82
2022/03/23 10:21:39;;;;;;;15.52;13.85;;;25.10;36.60;;;;;;5052212;28;20232;-82
2022/03/23 10:24:32;;;;;;;15.55;13.45;;;25.20;37.30;;;;;;5053675;28;20725;-82
2022/03/23 10:27:02;;;;;;;15.00;13.40;;;25.30;36.40;;;;;;5048789;28;20219;-82
2022/03/23 10:29:30;;;;;;;15.60;13.60;;;25.40;36.40;;;;;;5053057;28;20572;-82
2022/03/23 10:32:06;;;;;;;17.17;14.68;;;25.50;34.70;;;;;;5055757;28;20220;-82
2022/03/23 10:34:48;;;;;;;17.45;14.85;;;25.50;35.00;;;;;;5054009;28;20296;-82
2022/03/23 10:37:17;;;;;;;15.75;13.68;;;25.40;34.60;;;;;;5053678;28;20227;-82
2022/03/23 10:39:43;;;;;;;15.88;14.18;;;25.50;34.70;;;;;;5052538;28;20223;-82
2022/03/23 10:42:15;;;;;;;15.48;13.88;;;25.40;34.40;;;;;;5052524;28;20246;-82
2022/03/23 10:44:42;;;;;;;18.27;14.52;;;25.30;34.30;;;;;;5053601;28;20395;-82
2022/03/23 10:47:21;;;;;;;16.90;15.10;;;25.20;34.60;;;;;;5053574;28;20228;-82
2022/03/23 10:49:50;;;;;;;17.98;14.60;;;25.10;35.00;;;;;;5053898;28;20330;-82
2022/03/23 10:52:18;;;;;;;16.90;14.20;;;25.10;34.10;;;;;;5051556;28;20254;-82
2022/03/23 10:54:55;;;;;;;15.90;13.73;;;25.10;34.60;;;;;;5051071;28;20234;-82
2022/03/23 10:57:22;;;;;;;17.77;14.55;;;25.20;34.20;;;;;;5050852;28;20235;-82
2022/03/23 10:59:49;;;;;;;18.98;14.13;;;25.20;35.40;;;;;;5051302;28;20221;-82
2022/03/23 11:02:18;;;;;;;18.30;14.43;;;25.20;35.40;;;;;;5054075;28;20219;-82
2022/03/23 11:04:52;;;;;;;20.02;15.15;;;25.10;34.60;;;;;;5054753;28;20231;-82
2022/03/23 11:07:26;;;;;;;18.75;15.60;;;25.10;34.60;;;;;;5047924;28;20331;-82
2022/03/23 11:18:09;;;;;;;17.17;14.25;;;24.90;35.50;;;;;;5048908;28;20247;-82
2022/03/23 11:20:48;;;;;;;19.48;15.68;;;24.90;35.80;;;;;;5050477;28;20286;-82
2022/03/23 11:23:22;;;;;;;18.42;16.33;;;25.00;35.70;;;;;;5050468;28;20239;-82
2022/03/23 11:25:50;;;;;;;18.77;15.00;;;25.00;36.10;;;;;;5052559;28;20224;-82
2022/03/23 11:28:18;;;;;;;17.70;15.80;;;25.00;35.60;;;;;;5046677;28;20224;-82
2022/03/23 11:30:46;;;;;;;19.95;15.52;;;25.00;36.30;;;;;;5051478;28;20228;-82
2022/03/23 11:33:16;;;;;;;20.40;16.50;;;24.90;36.00;;;;;;5048639;28;20234;-82
2022/03/23 11:35:47;;;;;;;23.58;16.85;;;24.80;36.30;;;;;;5053279;28;20245;-82
2022/03/23 11:38:17;;;;;;;18.92;15.75;;;24.80;36.10;;;;;;5046530;28;20862;-82
2022/03/23 11:40:45;;;;;;;23.00;16.40;;;24.80;36.50;;;;;;5052583;28;20239;-82
2022/03/23 11:43:12;;;;;;;18.30;15.10;;;24.90;36.20;;;;;;5048954;28;20258;-82
2022/03/23 11:45:40;;;;;;;21.92;16.35;;;25.00;36.40;;;;;;5052466;28;20892;-82
2022/03/23 11:48:15;;;;;;;21.55;16.48;;;25.00;35.40;;;;;;5048985;28;20748;-82
2022/03/23 11:50:52;;;;;;;23.63;16.45;;;25.00;35.60;;;;;;5050507;28;20269;-82
2022/03/23 11:53:30;;;;;;;21.42;16.40;;;24.80;35.10;;;;;;5049066;28;20219;-82
2022/03/23 11:55:57;;;;;;;23.13;16.70;;;24.60;35.40;;;;;;5050661;28;20224;-82
2022/03/23 11:58:36;;;;;;;22.67;16.83;;;24.40;36.20;;;;;;5050232;28;20255;-82
2022/03/23 12:01:08;;;;;;;19.30;16.35;;;24.30;36.10;;;;;;5050687;28;20231;-82
2022/03/23 12:03:49;;;;;;;19.98;16.35;;;24.20;36.40;;;;;;5050817;28;20224;-82
2022/03/23 12:06:17;;;;;;;21.63;16.40;;;24.30;36.50;;;;;;5050503;28;20224;-82
2022/03/23 12:08:50;;;;;;;20.90;17.00;;;24.40;36.90;;;;;;5052015;28;20249;-82
2022/03/23 12:11:35;;;;;;;18.52;16.42;;;24.40;36.20;;;;;;5049232;28;20224;-82
2022/03/23 12:14:04;;;;;;;20.20;17.05;;;24.30;35.10;;;;;;5051805;28;20227;-82
2022/03/23 12:17:06;;;;;;;21.40;16.52;;;24.20;35.40;;;;;;5050384;28;20251;-82
2022/03/23 12:19:34;;;;;;;21.90;16.73;;;24.10;36.80;;;;;;4988456;28;21588;-82
2022/03/23 12:22:15;;;;;;;21.33;16.35;;;24.00;35.90;;;;;;4989530;28;20230;-82
2022/03/23 12:24:53;;;;;;;22.70;16.10;;;23.80;36.40;;;;;;5020309;28;20255;-82
2022/03/23 12:27:31;;;;;;;22.52;17.45;;;23.70;37.00;;;;;;5047807;28;20228;-82
2022/03/23 12:30:00;;;;;;;21.10;16.38;;;23.60;36.20;;;;;;5048669;28;20745;-82
2022/03/23 12:32:36;;;;;;;23.23;17.40;;;23.50;36.60;;;;;;5049992;28;20217;-82
2022/03/23 12:35:05;;;;;;;21.42;16.30;;;23.50;35.90;;;;;;5048600;28;20716;-82
2022/03/23 12:37:37;;;;;;;22.45;17.05;;;23.50;36.20;;;;;;5050654;28;20242;-82
2022/03/23 12:40:10;;;;;;;21.95;16.90;;;23.40;36.40;;;;;;5046978;28;20212;-82
2022/03/23 12:42:41;;;;;;;23.15;16.85;;;23.30;36.80;;;;;;5051273;28;20238;-82
2022/03/23 12:45:15;;;;;;;23.58;16.73;;;23.30;36.80;;;;;;5048570;28;20224;-83
2022/03/23 12:47:54;;;;;;;24.33;17.63;;;23.30;37.10;;;;;;5050536;28;20262;-82
2022/03/23 12:59:13;;;;;;;21.10;17.00;;;23.20;38.30;;;;;;5043073;28;20228;-82
2022/03/23 13:01:40;;;;;;;22.50;17.15;;;23.10;38.00;;;;;;5044939;28;20657;-82
2022/03/23 13:04:07;;;;;;;23.63;17.50;;;23.10;37.90;;;;;;5044401;28;20223;-82
2022/03/23 13:06:36;;;;;;;23.38;17.02;;;23.10;37.80;;;;;;5047734;28;20232;-82
2022/03/23 13:09:04;;;;;;;20.63;16.52;;;23.10;38.10;;;;;;5054916;28;20569;-82
2022/03/23 13:11:32;;;;;;;21.75;16.40;;;23.20;38.50;;;;;;5050053;28;20228;-82
2022/03/23 13:14:00;;;;;;;20.75;16.55;;;23.30;38.20;;;;;;5047447;28;20712;-82
2022/03/23 13:16:28;;;;;;;21.75;16.92;;;23.40;37.40;;;;;;5051000;28;20224;-82